Time;durP1;ratioP1;P1;durP2;ratioP2;P2;SDS_P1;SDS_P2;PMS_P1;PMS_P2;Temp;Humidity;BMP_temperature;BMP_pressure;BME280_temperature;BME280_humidity;BME280_pressure;Samples;Min_cycle;Max_cycle;Signal;HPM_P1;HPM_P2
2023/10/12 00:00:24;;;;;;;8.48;2.83;;;;;;;23.97;44.84;100106.50;4485225;32;33357;-65
2023/10/12 00:02:47;;;;;;;9.15;2.55;;;;;;;23.93;44.89;100102.56;4484073;32;34495;-63
2023/10/12 00:05:18;;;;;;;7.03;2.83;;;;;;;23.92;44.83;100089.97;4484858;32;33681;-66
2023/10/12 00:07:49;;;;;;;7.50;2.85;;;;;;;23.92;44.81;100090.84;4484716;32;34218;-66
2023/10/12 00:12:46;;;;;;;7.20;2.75;;;;;;;23.91;44.75;100082.84;4473307;32;34681;-66
2023/10/12 00:18:08;;;;;;;5.32;2.85;;;;;;;23.91;44.75;100078.22;4469013;32;33782;-66
2023/10/12 00:20:39;;;;;;;7.10;2.70;;;;;;;23.91;44.73;100075.50;4469074;32;33180;-66
2023/10/12 00:23:10;;;;;;;6.40;2.78;;;;;;;23.91;44.70;100071.94;4467826;32;33977;-64
2023/10/12 00:25:46;;;;;;;7.43;3.10;;;;;;;23.90;44.73;100071.13;4468974;32;34143;-65
2023/10/12 00:28:19;;;;;;;6.87;2.37;;;;;;;23.91;44.69;100061.06;4467683;32;33615;-66
2023/10/12 00:30:57;;;;;;;6.50;3.05;;;;;;;23.89;44.67;100063.19;4467833;32;33317;-66
2023/10/12 00:33:25;;;;;;;8.65;3.25;;;;;;;23.89;44.73;100064.00;4468952;32;33234;-66
2023/10/12 00:36:01;;;;;;;6.30;2.50;;;;;;;23.89;44.64;100071.34;4468940;32;34146;-66
2023/10/12 00:38:29;;;;;;;8.15;3.03;;;;;;;23.88;44.64;100062.34;4467646;32;33808;-66
2023/10/12 00:40:58;;;;;;;7.87;2.87;;;;;;;23.88;44.61;100062.34;4468967;32;33821;-66
2023/10/12 00:43:36;;;;;;;7.95;2.60;;;;;;;23.87;44.62;100063.38;4467701;32;33456;-66
2023/10/12 00:49:21;;;;;;;7.32;3.03;;;;;;;23.88;44.64;100061.53;4435436;32;33735;-66
2023/10/12 00:51:53;;;;;;;6.20;2.80;;;;;;;23.88;44.66;100059.62;4465331;32;34207;-66
2023/10/12 00:54:43;;;;;;;6.03;2.42;;;;;;;23.88;44.62;100050.63;4455219;32;34797;-63
2023/10/12 00:57:11;;;;;;;6.35;2.80;;;;;;;23.88;44.71;100056.06;4468712;32;34799;-64
2023/10/12 00:59:39;;;;;;;8.32;2.42;;;;;;;23.89;44.73;100057.72;4468519;32;33988;-66
2023/10/12 01:02:10;;;;;;;8.98;2.85;;;;;;;23.90;44.77;100059.41;4468755;32;33622;-66
2023/10/12 01:04:41;;;;;;;6.47;3.03;;;;;;;23.88;44.79;100054.19;4467527;32;33990;-64
2023/10/12 01:07:19;;;;;;;6.22;2.80;;;;;;;23.89;44.75;100053.13;4467262;32;33868;-64
2023/10/12 01:09:54;;;;;;;8.02;2.62;;;;;;;23.87;44.67;100052.47;4468772;32;33627;-64
2023/10/12 01:12:30;;;;;;;6.75;2.83;;;;;;;23.87;44.68;100047.03;4477260;32;33463;-66
2023/10/12 01:14:59;;;;;;;6.53;2.90;;;;;;;23.88;44.70;100045.16;4484344;32;34001;-65
2023/10/12 01:17:29;;;;;;;7.12;2.30;;;;;;;23.88;44.65;100043.28;4484291;32;33449;-64
2023/10/12 01:19:58;;;;;;;5.43;2.65;;;;;;;23.87;44.63;100043.47;4484314;32;34480;-64
2023/10/12 01:22:27;;;;;;;9.25;2.72;;;;;;;23.86;44.61;100039.94;4484268;32;33476;-65
2023/10/12 01:27:22;;;;;;;6.72;2.58;;;;;;;23.86;44.63;100031.75;4484235;32;34004;-64
2023/10/12 01:29:51;;;;;;;6.20;2.40;;;;;;;23.87;44.59;100027.13;4484084;32;33617;-66
2023/10/12 01:34:55;;;;;;;5.15;2.60;;;;;;;23.86;44.64;100028.19;4484103;32;34806;-66
2023/10/12 01:37:25;;;;;;;5.68;2.58;;;;;;;23.86;44.78;100030.91;4483960;32;34713;-65
2023/10/12 01:39:57;;;;;;;4.62;2.20;;;;;;;23.87;44.69;100033.41;4470190;32;34176;-66
2023/10/12 01:42:35;;;;;;;6.35;2.75;;;;;;;23.87;44.66;100029.84;4483758;32;32943;-66
2023/10/12 01:45:04;;;;;;;5.15;2.35;;;;;;;23.86;44.69;100028.19;4470868;32;34079;-65
2023/10/12 01:47:37;;;;;;;6.05;3.15;;;;;;;23.86;44.60;100025.47;4484136;32;33876;-64
2023/10/12 01:50:06;;;;;;;7.62;2.70;;;;;;;23.87;44.59;100025.22;4483613;32;34688;-64
2023/10/12 01:52:35;;;;;;;3.55;2.10;;;;;;;23.85;44.54;100029.25;4483887;32;33452;-64
2023/10/12 01:55:16;;;;;;;7.20;2.15;;;;;;;23.85;44.50;100029.25;4483801;32;34134;-64
2023/10/12 01:58:04;;;;;;;8.65;2.85;;;;;;;23.86;44.50;100030.91;4483611;32;33817;-64
2023/10/12 02:00:42;;;;;;;4.75;2.00;;;;;;;23.84;44.49;100028.44;4483807;32;34590;-63
2023/10/12 02:05:59;;;;;;;6.35;2.42;;;;;;;23.84;44.56;100024.88;4483574;32;34344;-63
2023/10/12 02:08:39;;;;;;;8.50;2.78;;;;;;;23.83;44.52;100023.22;4483694;32;34142;-63
2023/10/12 02:13:50;;;;;;;6.20;2.55;;;;;;;23.83;44.56;100023.22;4467890;32;34290;-63
2023/10/12 02:16:26;;;;;;;6.45;2.35;;;;;;;23.82;44.42;100024.25;4467792;32;34416;-63
2023/10/12 02:18:54;;;;;;;10.20;3.03;;;;;;;23.82;44.45;100026.97;4454541;32;33719;-63
2023/10/12 02:21:25;;;;;;;6.90;2.83;;;;;;;23.82;44.40;100032.41;4467949;32;34515;-63
2023/10/12 02:34:29;;;;;;;6.25;2.30;;;;;;;23.83;44.44;100020.50;4467690;32;33455;-63
2023/10/12 02:39:42;;;;;;;6.07;2.10;;;;;;;23.82;44.41;100026.97;4467272;32;34392;-63
2023/10/12 02:42:17;;;;;;;5.22;2.62;;;;;;;23.80;44.52;100029.09;4467429;32;34803;-63
2023/10/12 02:47:30;;;;;;;8.20;2.58;;;;;;;23.79;44.39;100027.44;4467481;32;33465;-63
2023/10/12 02:50:15;;;;;;;4.53;2.40;;;;;;;23.79;44.38;100025.53;4476655;32;34602;-66
2023/10/12 02:52:43;;;;;;;5.25;2.30;;;;;;;23.78;44.40;100023.03;4483042;32;33667;-63
2023/10/12 02:57:56;;;;;;;8.82;2.62;;;;;;;23.79;44.39;100027.44;4485327;32;33544;-64
2023/10/12 03:01:29;;;;;;;5.00;2.33;;;;;;;23.79;44.43;100022.00;4485335;32;34815;-62
2023/10/12 03:05:52;;;;;;;5.70;2.07;;;;;;;23.79;44.41;100017.38;4458426;32;33178;-63
2023/10/12 03:08:21;;;;;;;6.85;2.40;;;;;;;23.80;44.49;100012.75;4471075;32;33732;-63
2023/10/12 03:13:35;;;;;;;7.50;2.12;;;;;;;23.79;44.46;100011.91;4456871;32;34032;-63
2023/10/12 03:18:39;;;;;;;5.57;2.30;;;;;;;23.79;44.46;100008.38;4442812;32;33025;-64
2023/10/12 03:21:14;;;;;;;5.62;2.28;;;;;;;23.79;44.50;100011.91;4455746;32;33870;-63
2023/10/12 03:23:43;;;;;;;5.45;2.28;;;;;;;23.78;44.57;100018.44;4469403;32;34869;-63
2023/10/12 03:28:53;;;;;;;5.65;2.33;;;;;;;23.81;44.56;100015.25;4469322;32;34011;-64
2023/10/12 03:31:23;;;;;;;;;;;;;;;23.80;44.50;100023.66;4469465;32;34809;-63
2023/10/12 03:33:54;;;;;;;6.93;2.25;;;;;;;23.89;44.41;100027.75;4469321;32;33947;-64
2023/10/12 03:36:31;;;;;;;4.65;2.47;;;;;;;23.82;44.49;100021.53;4469331;32;33530;-64
2023/10/12 03:47:05;;;;;;;4.12;2.10;;;;;;;23.77;44.51;100005.00;4466698;32;34210;-64
2023/10/12 03:49:39;;;;;;;5.82;2.45;;;;;;;23.75;44.41;100013.41;4452349;32;34850;-65
2023/10/12 03:52:13;;;;;;;6.43;2.53;;;;;;;23.77;44.65;100002.28;4451988;32;33210;-64
2023/10/12 03:55:27;;;;;;;5.57;2.15;;;;;;;23.77;44.69;100005.00;4463669;32;34710;-64
2023/10/12 03:57:45;;;;;;;5.93;2.30;;;;;;;23.77;44.54;99999.56;4437751;32;34478;-64
2023/10/12 04:03:10;;;;;;;5.93;2.05;;;;;;;23.77;44.44;100005.84;4468993;32;34824;-63
2023/10/12 04:08:01;;;;;;;4.45;2.03;;;;;;;23.75;44.43;100002.53;4454994;32;33437;-64
2023/10/12 04:18:42;;;;;;;8.70;2.85;;;;;;;23.77;44.43;99996.84;4468946;32;34139;-64
2023/10/12 04:21:10;;;;;;;4.55;2.08;;;;;;;23.74;44.49;100000.03;4469042;32;33853;-66
2023/10/12 04:28:58;;;;;;;5.03;2.40;;;;;;;23.75;44.50;100007.13;4468996;32;33453;-65
2023/10/12 04:31:48;;;;;;;6.50;2.08;;;;;;;23.75;44.56;100001.69;4468707;32;35040;-66
2023/10/12 04:34:16;;;;;;;6.65;2.28;;;;;;;23.74;44.46;100000.03;4457136;32;33997;-66
2023/10/12 04:39:17;;;;;;;12.05;2.92;;;;;;;23.81;44.69;100001.62;4468734;32;34236;-64
2023/10/12 04:46:59;;;;;;;;;;;;;;;23.78;44.68;99993.91;4469340;32;33972;-63
2023/10/12 04:57:32;;;;;;;11.00;2.40;;;;;;;23.77;44.47;99999.56;4451921;32;34588;-63
2023/10/12 05:00:11;;;;;;;8.02;2.58;;;;;;;23.72;44.46;100002.13;4468235;32;33341;-63
2023/10/12 05:07:54;;;;;;;10.15;2.72;;;;;;;23.72;44.48;100013.03;4468805;32;33865;-67
2023/10/12 05:10:31;;;;;;;8.13;3.50;;;;;;;23.71;44.04;100014.09;4468525;32;32901;-67
2023/10/12 05:13:05;;;;;;;8.00;3.47;;;;;;;23.71;43.81;100022.25;4468927;32;33787;-67
2023/10/12 05:15:46;;;;;;;7.95;3.17;;;;;;;23.71;43.68;100020.37;4455126;32;34105;-66
2023/10/12 05:18:17;;;;;;;8.52;3.50;;;;;;;23.70;43.64;100024.16;4455098;32;34130;-67
2023/10/12 05:20:45;;;;;;;12.02;3.83;;;;;;;23.70;43.48;100026.87;4454823;32;33872;-67
2023/10/12 05:23:13;;;;;;;5.80;3.05;;;;;;;23.68;43.25;100021.62;4468606;32;34035;-65
2023/10/12 05:28:21;;;;;;;8.90;4.40;;;;;;;23.67;43.07;100014.53;4468498;32;33573;-68
2023/10/12 05:30:54;;;;;;;6.72;4.53;;;;;;;23.66;43.00;100012.03;4442267;32;32717;-66
2023/10/12 05:36:10;;;;;;;8.48;4.82;;;;;;;23.65;42.90;100007.66;4465315;32;34672;-66
2023/10/12 05:38:52;;;;;;;11.18;5.05;;;;;;;23.65;42.80;100004.91;4468230;32;33548;-65
2023/10/12 05:44:03;;;;;;;;;;;;;;;23.64;42.76;100019.56;4467809;32;33672;-66
2023/10/12 05:46:34;;;;;;;10.65;5.28;;;;;;;23.72;42.46;100026.66;4467984;32;34248;-66
2023/10/12 05:49:11;;;;;;;11.20;5.72;;;;;;;23.64;42.56;100019.56;4470392;32;33878;-67
2023/10/12 05:51:45;;;;;;;10.60;5.75;;;;;;;23.60;42.54;100021.06;4484000;32;33067;-66
2023/10/12 05:54:19;;;;;;;12.50;5.20;;;;;;;23.60;42.62;100016.47;4483903;32;33685;-66
2023/10/12 05:56:51;;;;;;;9.70;5.82;;;;;;;23.59;42.60;100019.38;4480769;32;33976;-67
2023/10/12 05:59:20;;;;;;;11.77;6.25;;;;;;;23.58;42.53;100021.28;4483779;32;34591;-67
2023/10/12 06:01:48;;;;;;;8.00;5.15;;;;;;;23.57;42.53;100016.87;4483975;32;33591;-67
2023/10/12 06:04:19;;;;;;;10.80;5.50;;;;;;;23.56;42.52;100012.50;4484044;32;33523;-67
2023/10/12 06:06:51;;;;;;;12.18;6.10;;;;;;;23.58;42.41;100010.37;4483782;32;33828;-67
2023/10/12 06:09:20;;;;;;;9.88;6.28;;;;;;;23.57;42.44;100018.78;4481145;32;33746;-67
2023/10/12 06:11:49;;;;;;;11.48;5.85;;;;;;;23.57;42.49;100021.50;4482438;32;34232;-66
2023/10/12 06:14:20;;;;;;;10.40;5.87;;;;;;;23.55;42.37;100027.19;4482435;32;33714;-68
2023/10/12 06:16:54;;;;;;;10.00;5.82;;;;;;;23.56;42.36;100033.47;4482607;32;33366;-67
2023/10/12 06:19:34;;;;;;;8.90;6.00;;;;;;;23.55;42.30;100029.03;4482568;32;33754;-64
2023/10/12 06:22:32;;;;;;;10.63;5.90;;;;;;;23.55;42.19;100023.59;4482452;32;34237;-67
2023/10/12 06:25:00;;;;;;;9.32;6.20;;;;;;;23.55;42.24;100037.22;4482453;32;34027;-67
2023/10/12 06:27:30;;;;;;;10.30;5.60;;;;;;;23.54;42.25;100041.84;4483848;32;34701;-67
2023/10/12 06:30:16;;;;;;;9.23;6.18;;;;;;;23.53;42.24;100044.78;4485529;32;33588;-67
2023/10/12 06:32:48;;;;;;;11.07;5.93;;;;;;;23.53;42.22;100040.19;4484487;32;33355;-66
2023/10/12 06:51:06;;;;;;;10.35;5.37;;;;;;;23.49;42.15;100040.84;4473059;32;33993;-67
2023/10/12 06:53:34;;;;;;;9.52;5.55;;;;;;;23.48;42.08;100040.00;4485548;32;32993;-66
2023/10/12 06:56:21;;;;;;;11.45;5.90;;;;;;;23.47;42.10;100041.06;4485318;32;34190;-64
2023/10/12 06:59:20;;;;;;;11.85;6.28;;;;;;;23.49;42.08;100035.38;4485400;32;33700;-67
2023/10/12 07:04:38;;;;;;;8.70;6.03;;;;;;;23.57;41.91;100033.22;4485434;32;34122;-66
2023/10/12 07:07:11;;;;;;;8.43;5.80;;;;;;;23.48;42.09;100034.56;4473561;32;33832;-63
2023/10/12 07:09:39;;;;;;;;;;;;;;;23.46;42.10;100039.41;4485516;32;33921;-64
2023/10/12 07:12:10;;;;;;;10.23;5.72;;;;;;;23.54;41.85;100047.28;4485193;32;35068;-62
2023/10/12 07:14:39;;;;;;;8.65;5.75;;;;;;;23.48;42.02;100047.34;4485230;32;34162;-64
2023/10/12 07:17:10;;;;;;;12.63;6.10;;;;;;;23.45;42.06;100054.06;4471240;32;33838;-66
2023/10/12 07:19:41;;;;;;;7.60;5.60;;;;;;;23.46;42.13;100052.19;4485266;32;33984;-67
2023/10/12 07:22:15;;;;;;;9.68;6.00;;;;;;;23.44;42.17;100038.78;4471445;32;34492;-67
2023/10/12 07:24:43;;;;;;;8.15;5.32;;;;;;;23.42;42.20;100035.44;4471676;32;33003;-67
2023/10/12 07:27:18;;;;;;;10.38;5.90;;;;;;;23.44;42.18;100041.50;4471095;32;33151;-68
2023/10/12 07:30:02;;;;;;;7.80;4.93;;;;;;;23.43;42.24;100048.00;4485126;32;35431;-65
2023/10/12 07:32:38;;;;;;;9.65;5.55;;;;;;;23.42;42.23;100039.00;4485070;32;34361;-65
2023/10/12 07:35:09;;;;;;;8.18;5.47;;;;;;;23.44;42.16;100033.31;4485029;32;33423;-64
2023/10/12 07:37:41;;;;;;;9.10;5.53;;;;;;;23.43;42.11;100029.78;4484848;32;34320;-65
2023/10/12 07:40:19;;;;;;;7.10;4.95;;;;;;;23.43;42.10;100037.94;4484409;32;34790;-66
2023/10/12 07:42:47;;;;;;;8.20;5.40;;;;;;;23.45;42.11;100037.72;4473392;31;33875;-63
2023/10/12 07:45:16;;;;;;;10.35;6.00;;;;;;;23.44;42.16;100036.06;4480901;32;33328;-62
2023/10/12 07:47:46;;;;;;;10.63;5.37;;;;;;;23.42;42.12;100025.38;4469104;32;34467;-66
2023/10/12 07:50:15;;;;;;;11.55;5.75;;;;;;;23.45;42.16;100029.53;4479830;32;33821;-66
2023/10/12 07:52:48;;;;;;;9.25;5.93;;;;;;;23.43;42.18;100024.31;4469206;32;33964;-63
2023/10/12 07:55:17;;;;;;;8.23;5.20;;;;;;;23.43;42.13;100026.22;4469363;32;34130;-66
2023/10/12 07:57:46;;;;;;;10.02;5.72;;;;;;;23.43;42.09;100028.94;4469180;32;33691;-67
2023/10/12 08:08:08;;;;;;;9.82;5.72;;;;;;;23.44;42.08;100027.88;4484856;32;33951;-66
2023/10/12 08:21:24;;;;;;;7.82;5.40;;;;;;;23.43;42.21;100015.31;4484636;32;33828;-66
2023/10/12 08:23:57;;;;;;;8.82;4.97;;;;;;;23.44;42.22;100006.09;4484529;32;33920;-64
2023/10/12 08:39:38;;;;;;;9.40;5.82;;;;;;;23.41;42.24;100009.28;4483127;32;33777;-67
2023/10/12 08:44:58;;;;;;;8.13;5.15;;;;;;;23.41;42.21;100007.38;4483516;32;34563;-67
2023/10/12 08:50:01;;;;;;;11.18;5.72;;;;;;;23.40;42.23;100011.16;4484478;32;34641;-64
2023/10/12 08:52:31;;;;;;;9.02;5.95;;;;;;;23.41;42.32;100003.84;4483429;32;33740;-66
2023/10/12 08:55:08;;;;;;;8.27;5.20;;;;;;;23.40;42.33;100002.16;4484526;32;34315;-67
2023/10/12 08:57:56;;;;;;;9.70;6.03;;;;;;;23.41;42.29;100001.12;4484383;32;33440;-66
2023/10/12 09:03:24;;;;;;;8.57;5.70;;;;;;;23.39;42.24;99992.31;4483617;32;34527;-66
2023/10/12 09:05:52;;;;;;;9.25;5.95;;;;;;;23.39;42.22;99998.59;4484269;32;33928;-64
2023/10/12 09:13:35;;;;;;;8.10;5.47;;;;;;;23.42;42.34;99997.34;4484304;32;33583;-66
2023/10/12 09:16:15;;;;;;;10.73;5.35;;;;;;;23.40;42.36;99996.69;4483033;32;33926;-67
2023/10/12 09:18:57;;;;;;;9.38;5.93;;;;;;;23.40;42.36;99993.97;4484205;32;34088;-67
2023/10/12 09:21:38;;;;;;;9.30;5.37;;;;;;;23.41;42.32;99998.38;4484202;32;34661;-67
2023/10/12 09:26:35;;;;;;;9.32;5.68;;;;;;;23.41;42.35;99991.06;4484494;32;33572;-66
2023/10/12 09:36:53;;;;;;;9.30;5.82;;;;;;;23.42;42.39;99986.44;4483877;32;34076;-66
2023/10/12 09:39:34;;;;;;;8.85;5.20;;;;;;;23.41;42.44;99984.78;4484119;32;33364;-67
2023/10/12 09:42:19;;;;;;;8.40;5.95;;;;;;;23.42;42.39;99981.00;4484070;32;34682;-66
2023/10/12 09:44:49;;;;;;;8.13;5.65;;;;;;;23.42;42.42;99975.53;4484043;32;34666;-67
2023/10/12 09:47:23;;;;;;;;;;;;;;;23.41;42.43;99979.31;4483151;32;33566;-67
2023/10/12 09:49:55;;;;;;;9.00;5.28;;;;;;;23.52;42.21;99980.50;4472539;32;33250;-67
2023/10/12 09:52:24;;;;;;;7.87;4.75;;;;;;;23.44;42.39;99981.59;4468286;32;34344;-66
2023/10/12 09:55:13;;;;;;;7.87;5.05;;;;;;;23.42;42.43;99981.00;4468304;32;33888;-67
2023/10/12 09:57:50;;;;;;;9.67;5.57;;;;;;;23.42;42.42;99975.53;4468135;32;34946;-67
2023/10/12 10:00:55;;;;;;;8.15;4.82;;;;;;;23.44;42.46;99973.41;4468198;32;34139;-66
2023/10/12 10:03:17;;;;;;;8.23;5.00;;;;;;;23.42;42.45;99973.66;4469479;32;33966;-66
2023/10/12 10:05:52;;;;;;;7.62;5.10;;;;;;;23.43;42.44;99977.19;4463063;32;34270;-66
2023/10/12 10:08:22;;;;;;;8.35;4.72;;;;;;;23.41;42.48;99976.59;4475598;32;33073;-65
2023/10/12 10:10:57;;;;;;;9.93;5.22;;;;;;;23.42;42.48;99975.53;4475135;32;33497;-66
2023/10/12 10:13:46;;;;;;;9.77;5.35;;;;;;;23.43;42.49;99971.75;4487530;32;34683;-66
2023/10/12 10:16:17;;;;;;;8.47;5.53;;;;;;;23.47;42.45;99966.72;4487696;32;33775;-66
2023/10/12 10:18:56;;;;;;;10.77;6.05;;;;;;;23.45;42.46;99966.91;4488689;32;34794;-66
2023/10/12 10:21:31;;;;;;;11.05;5.50;;;;;;;23.45;42.50;99957.91;4489011;32;34188;-66
2023/10/12 10:23:59;;;;;;;7.97;5.18;;;;;;;23.44;42.51;99959.81;4475387;32;33525;-65
2023/10/12 10:26:30;;;;;;;8.52;5.80;;;;;;;23.44;42.52;99962.53;4487572;32;34970;-66
2023/10/12 10:29:04;;;;;;;8.55;5.15;;;;;;;23.45;42.52;99955.19;4474637;32;34092;-66
2023/10/12 10:31:35;;;;;;;9.25;5.18;;;;;;;23.44;42.52;99957.06;4488717;32;33362;-67
2023/10/12 10:34:06;;;;;;;8.77;5.25;;;;;;;23.45;42.52;99961.47;4488686;32;34095;-66
2023/10/12 10:36:36;;;;;;;8.48;5.25;;;;;;;23.45;42.53;99953.28;4488379;32;34477;-66
2023/10/12 10:39:28;;;;;;;9.85;5.15;;;;;;;23.46;42.50;99956.88;4488755;32;33954;-66
2023/10/12 10:42:07;;;;;;;9.15;5.43;;;;;;;23.45;42.52;99958.75;4472558;32;33222;-66
2023/10/12 10:44:45;;;;;;;10.20;5.50;;;;;;;23.46;42.49;99941.38;4470587;32;33934;-65
2023/10/12 10:47:15;;;;;;;8.55;5.25;;;;;;;23.46;42.52;99940.53;4475929;32;34590;-67
2023/10/12 10:49:48;;;;;;;9.82;5.65;;;;;;;23.46;42.51;99940.53;4480272;32;34096;-65
2023/10/12 10:52:20;;;;;;;12.90;5.20;;;;;;;23.46;42.53;99933.19;4483365;32;33184;-65
2023/10/12 10:54:56;;;;;;;7.28;4.90;;;;;;;23.47;42.58;99939.47;4472061;32;33495;-67
2023/10/12 10:57:37;;;;;;;11.88;5.53;;;;;;;23.47;42.60;99936.75;4471098;32;34801;-66
2023/10/12 11:00:17;;;;;;;8.65;5.50;;;;;;;23.47;42.63;99934.03;4472540;32;33895;-67
2023/10/12 11:02:47;;;;;;;9.93;5.78;;;;;;;23.47;42.58;99929.41;4476587;32;33565;-65
2023/10/12 11:05:19;;;;;;;8.10;5.00;;;;;;;23.45;42.59;99925.22;4473199;32;33923;-65
2023/10/12 11:07:50;;;;;;;9.55;5.18;;;;;;;23.47;42.61;99931.31;4472633;32;33641;-67
2023/10/12 11:11:14;;;;;;;7.62;5.60;;;;;;;23.46;42.64;99927.75;4467798;32;33858;-64
2023/10/12 11:13:18;;;;;;;9.25;5.47;;;;;;;23.47;42.61;99929.41;4485358;32;33021;-68
2023/10/12 11:15:46;;;;;;;10.88;5.55;;;;;;;23.48;42.62;99930.25;4469014;32;34145;-67
2023/10/12 11:18:17;;;;;;;8.73;5.40;;;;;;;23.47;42.64;99929.41;4455214;32;33967;-64
2023/10/12 11:20:49;;;;;;;8.02;5.12;;;;;;;23.49;42.77;99921.00;4455448;32;33819;-64
2023/10/12 11:23:17;;;;;;;9.43;5.12;;;;;;;23.49;42.70;99918.28;4455084;32;33618;-64
2023/10/12 11:25:45;;;;;;;9.07;5.25;;;;;;;23.49;42.72;99918.28;4469416;32;33938;-68
2023/10/12 11:28:22;;;;;;;8.85;5.65;;;;;;;23.49;42.71;99915.56;4467762;32;34862;-67
2023/10/12 11:30:54;;;;;;;;;;;;;;;23.49;42.76;99910.94;4469144;32;33562;-65
2023/10/12 11:33:27;;;;;;;11.55;5.65;;;;;;;23.59;42.52;99904.97;4468781;32;33403;-68
2023/10/12 11:36:00;;;;;;;9.15;5.10;;;;;;;23.51;42.70;99900.69;4468885;32;33729;-65
2023/10/12 11:38:28;;;;;;;9.23;5.82;;;;;;;23.49;42.84;99896.50;4470389;32;34010;-65
2023/10/12 11:40:57;;;;;;;9.90;5.30;;;;;;;23.49;42.88;99896.50;4469210;32;34373;-66
2023/10/12 11:43:44;;;;;;;9.73;5.53;;;;;;;23.47;42.83;99899.47;4457074;32;33413;-65
2023/10/12 11:46:14;;;;;;;9.38;5.87;;;;;;;23.52;42.76;99893.34;4474116;32;34463;-68
2023/10/12 11:48:42;;;;;;;9.85;5.53;;;;;;;23.49;42.78;99891.88;4484698;32;34920;-67
2023/10/12 11:51:11;;;;;;;8.85;5.82;;;;;;;23.49;42.81;99883.72;4484681;32;33955;-66
2023/10/12 11:53:39;;;;;;;9.20;5.30;;;;;;;23.48;42.83;99884.78;4478203;32;34447;-68
2023/10/12 11:56:22;;;;;;;;;;;;;;;23.51;42.87;99887.06;4469300;32;33457;-67
2023/10/12 11:58:54;;;;;;;12.25;5.80;;;;;;;23.59;42.61;99883.19;4468861;32;33878;-67
2023/10/12 12:01:22;;;;;;;9.55;6.00;;;;;;;23.52;42.85;99882.44;4469159;32;33693;-65
2023/10/12 12:03:54;;;;;;;10.73;5.93;;;;;;;23.50;42.84;99879.09;4469104;32;33618;-63
2023/10/12 12:06:22;;;;;;;9.88;5.22;;;;;;;23.49;42.94;99875.53;4484803;32;33730;-64
2023/10/12 12:08:51;;;;;;;13.00;6.30;;;;;;;23.51;43.09;99876.16;4479101;32;34911;-64
2023/10/12 12:11:28;;;;;;;9.20;5.50;;;;;;;23.51;43.10;99873.44;4467914;32;33812;-65
2023/10/12 12:13:55;;;;;;;11.85;6.07;;;;;;;23.50;43.28;99869.06;4468875;32;33641;-64
2023/10/12 12:16:23;;;;;;;8.35;5.72;;;;;;;23.51;43.20;99873.44;4469030;32;33884;-65
2023/10/12 12:18:53;;;;;;;13.10;5.97;;;;;;;23.52;43.24;99872.37;4468541;32;34879;-67
2023/10/12 12:21:34;;;;;;;10.63;5.70;;;;;;;23.52;43.14;99866.09;4468767;32;34474;-64
2023/10/12 12:26:45;;;;;;;10.23;5.75;;;;;;;23.51;43.00;99865.28;4482470;32;34785;-63
2023/10/12 12:29:24;;;;;;;10.18;5.53;;;;;;;23.52;42.99;99852.47;4468986;32;33558;-67
2023/10/12 12:31:57;;;;;;;9.60;6.43;;;;;;;23.53;42.98;99849.53;4470527;32;33777;-64
2023/10/12 12:34:38;;;;;;;11.60;6.10;;;;;;;23.51;42.99;99843.47;4472540;32;33363;-64
2023/10/12 12:37:06;;;;;;;9.27;6.07;;;;;;;23.52;42.95;99845.16;4484583;32;33750;-65
2023/10/12 12:39:34;;;;;;;11.57;5.82;;;;;;;23.52;42.93;99850.59;4482185;32;33913;-65
2023/10/12 12:42:02;;;;;;;9.98;5.57;;;;;;;23.52;42.96;99845.16;4467769;32;34484;-66
2023/10/12 12:44:30;;;;;;;10.07;5.87;;;;;;;23.52;42.95;99839.69;4468433;32;33571;-65
2023/10/12 12:46:59;;;;;;;13.15;6.28;;;;;;;23.52;42.94;99834.25;4468002;32;34650;-64
2023/10/12 12:49:29;;;;;;;12.30;5.12;;;;;;;23.52;42.96;99831.53;4468772;32;34035;-66
2023/10/12 12:52:00;;;;;;;;;;;;;;;23.53;42.93;99813.28;4469609;32;34080;-65
2023/10/12 12:54:31;;;;;;;10.10;5.12;;;;;;;23.63;42.73;99808.13;4473526;32;33416;-66
2023/10/12 12:56:59;;;;;;;9.23;5.50;;;;;;;23.54;42.88;99810.31;4467621;32;33676;-65
2023/10/12 12:59:27;;;;;;;12.35;5.82;;;;;;;23.52;42.91;99809.75;4468537;32;34823;-65
2023/10/12 13:01:55;;;;;;;9.63;6.22;;;;;;;23.52;42.93;99803.47;4468742;32;33838;-66
2023/10/12 13:04:23;;;;;;;9.25;5.53;;;;;;;23.52;42.93;99801.56;4468152;32;33691;-64
2023/10/12 13:06:52;;;;;;;9.15;5.22;;;;;;;23.51;42.92;99805.34;4475652;32;33610;-64
2023/10/12 13:09:33;;;;;;;9.73;5.75;;;;;;;23.53;42.90;99799.66;4468090;32;34093;-64
2023/10/12 13:12:06;;;;;;;10.70;5.87;;;;;;;23.53;42.90;99799.66;4468720;32;33585;-64
2023/10/12 13:14:34;;;;;;;8.70;5.72;;;;;;;23.53;42.90;99794.22;4477438;32;33405;-64
2023/10/12 13:17:01;;;;;;;8.95;5.90;;;;;;;23.52;42.90;99793.41;4484287;32;34059;-65
2023/10/12 13:19:31;;;;;;;15.65;5.40;;;;;;;23.53;42.89;99799.66;4483387;32;33985;-65
2023/10/12 13:21:59;;;;;;;8.18;5.28;;;;;;;23.53;42.89;99796.94;4468759;32;32295;-65
2023/10/12 13:24:28;;;;;;;8.63;5.75;;;;;;;23.52;42.87;99795.28;4480122;32;33327;-65
2023/10/12 13:26:56;;;;;;;8.80;5.28;;;;;;;23.53;42.86;99799.66;4471886;32;33815;-64
2023/10/12 13:29:25;;;;;;;9.63;5.97;;;;;;;23.53;42.84;99797.78;4473241;32;34853;-64
2023/10/12 13:31:53;;;;;;;9.63;5.87;;;;;;;23.52;42.88;99801.56;4483045;32;33609;-65
2023/10/12 13:34:23;;;;;;;8.98;5.53;;;;;;;23.53;42.85;99796.94;4483240;32;33337;-66
2023/10/12 13:36:52;;;;;;;9.95;6.12;;;;;;;23.53;42.84;99796.94;4484173;32;34567;-65
2023/10/12 13:39:19;;;;;;;8.18;4.90;;;;;;;23.53;42.85;99797.78;4476292;32;33914;-65
2023/10/12 13:41:47;;;;;;;7.82;5.12;;;;;;;23.52;42.84;99790.66;4473718;32;33764;-65
2023/10/12 13:44:19;;;;;;;8.45;5.35;;;;;;;23.53;42.84;99788.78;4472142;32;33166;-64
2023/10/12 13:46:48;;;;;;;7.93;5.07;;;;;;;23.53;42.84;99786.88;4468527;32;33822;-65
2023/10/12 13:49:17;;;;;;;9.38;5.20;;;;;;;23.53;42.82;99786.88;4469295;32;33807;-65
2023/10/12 13:51:47;;;;;;;8.63;5.10;;;;;;;23.53;42.82;99786.06;4477310;32;34360;-65
2023/10/12 13:54:16;;;;;;;9.38;5.35;;;;;;;23.53;42.82;99775.16;4475514;32;33237;-64
2023/10/12 13:56:48;;;;;;;9.20;5.45;;;;;;;23.53;42.82;99773.25;4471833;32;34242;-65
2023/10/12 13:59:16;;;;;;;7.62;5.25;;;;;;;23.52;42.82;99771.59;4468051;32;34125;-64
2023/10/12 14:01:46;;;;;;;7.72;5.10;;;;;;;23.53;42.83;99773.25;4468066;32;33980;-65
2023/10/12 14:04:30;;;;;;;9.98;5.35;;;;;;;23.52;42.83;99770.78;4467745;32;33447;-65
2023/10/12 14:07:00;;;;;;;7.62;4.82;;;;;;;23.53;42.82;99767.00;4476960;32;34635;-65
2023/10/12 14:09:31;;;;;;;7.25;4.90;;;;;;;23.52;42.83;99762.59;4468723;32;34222;-65
2023/10/12 14:11:59;;;;;;;9.07;5.25;;;;;;;23.53;42.83;99764.25;4483777;32;33898;-65
2023/10/12 14:14:27;;;;;;;8.07;5.03;;;;;;;23.51;42.83;99764.50;4472270;32;32981;-64
2023/10/12 14:16:55;;;;;;;8.18;4.30;;;;;;;23.52;42.83;99763.44;4466462;32;34700;-64
2023/10/12 14:19:23;;;;;;;8.52;5.30;;;;;;;23.52;42.81;99766.16;4469361;32;34811;-65
2023/10/12 14:21:52;;;;;;;7.22;4.80;;;;;;;23.52;42.81;99766.16;4478745;32;34501;-63
2023/10/12 14:24:23;;;;;;;8.93;4.97;;;;;;;23.53;42.80;99769.72;4469650;32;32326;-65
2023/10/12 14:26:55;;;;;;;8.35;4.72;;;;;;;23.53;42.78;99765.09;4467758;32;33701;-65
2023/10/12 14:29:25;;;;;;;8.23;4.95;;;;;;;23.53;42.80;99764.25;4468692;32;34748;-63
2023/10/12 14:31:54;;;;;;;9.50;4.93;;;;;;;23.52;42.79;99759.88;4467387;32;34465;-63
2023/10/12 14:34:22;;;;;;;7.68;5.12;;;;;;;23.53;42.78;99761.53;4472604;32;34639;-63
2023/10/12 14:36:50;;;;;;;7.45;4.80;;;;;;;23.52;42.79;99763.44;4483393;32;33916;-64
2023/10/12 14:39:24;;;;;;;8.55;4.75;;;;;;;23.52;42.80;99759.88;4476111;32;34765;-65
2023/10/12 14:41:52;;;;;;;8.00;4.87;;;;;;;23.52;42.80;99760.72;4467461;32;33756;-66
2023/10/12 14:44:20;;;;;;;8.90;4.60;;;;;;;23.52;42.80;99762.59;4473477;32;33646;-64
2023/10/12 14:46:54;;;;;;;7.12;4.60;;;;;;;23.51;42.80;99753.62;4483232;32;34417;-65
2023/10/12 14:49:23;;;;;;;6.85;4.40;;;;;;;23.52;42.80;99755.28;4475211;32;33918;-66
2023/10/12 14:51:51;;;;;;;7.35;4.35;;;;;;;23.53;42.80;99753.38;4469465;32;34019;-65
2023/10/12 14:54:20;;;;;;;9.80;4.90;;;;;;;23.53;42.78;99756.09;4473952;32;33720;-65